Flight Track Log - Related Links

Times and Time Zones

All times are in EDT time to prevent confusion due to time zone crossing. See the AAY855 flight status page for this flight to view local times or setup timezone preferences in your user account.

Time Position Orientation Groundspeed Altitude Reporting Facility
EDT Latitude Longitude Course Direction KTS MPH feet Rate Location/Type
Sun 06:26:30 PM 41.6478 -86.1553 144° Southeast 217 250 3,300  Level Chicago Center
Sun 06:27:32 PM 41.5944 -86.1042 144° Southeast 254 292 7,200 3,194 Climbing Chicago Center
Sun 06:28:34 PM 41.5167 -86.0964 176° South 280 322 9,900 2,081 Climbing Chicago Center
Sun 06:29:36 PM 41.4261 -86.0850 175° South 327 376 11,500 1,548 Climbing Chicago Center
Sun 06:30:38 PM 41.3208 -86.0731 175° South 378 435 13,100 2,129 Climbing Chicago Center
Sun 06:31:40 PM 41.1864 -86.0414 170° South 409 471 15,900 2,903 Climbing Chicago Center
Sun 06:32:42 PM 41.0714 -86.0247 174° South 416 479 19,100 2,784 Climbing Chicago Center
Sun 06:33:45 PM 40.9653 -86.0039 172° South 392 451 21,700 1,920 Climbing Chicago Center
Sun 06:34:47 PM 40.8600 -85.9883 174° South 382 440 23,100 1,258 Climbing Chicago Center
Sun 06:35:49 PM 40.7253 -85.9681 173° South 404 465 24,300 1,248 Climbing Chicago Center
Sun 06:36:52 PM 40.6211 -85.9497 172° South 418 481 25,700 1,584 Climbing Chicago Center
Sun 06:37:54 PM 40.5106 -85.9278 171° South 406 467 27,600 1,500 Climbing Chicago Center
Sun 06:38:56 PM 40.3806 -85.9019 171° South 394 453 28,800 968 Climbing Chicago Center
Sun 06:39:58 PM 40.2689 -85.8847 173° South 402 463 29,600 816 Climbing Chicago Center
Sun 06:41:01 PM 40.1547 -85.8658 173° South 409 471 30,500 618 Climbing Chicago Center
Sun 06:42:14 PM 40.0153 -85.8403 172° South 413 475 31,000 222 Climbing Indianapolis Center
Sun 06:43:16 PM 39.8944 -85.8178 172° South 427 491 31,000  Level Indianapolis Center
Sun 06:44:19 PM 39.7708 -85.7958 172° South 438 504 31,000  Level Indianapolis Center
Sun 06:45:21 PM 39.6483 -85.7728 172° South 439 505 31,000 194 Level Indianapolis Center
Sun 06:46:23 PM 39.5025 -85.7475 172° South 439 505 31,400 726 Climbing Indianapolis Center
Sun 06:47:25 PM 39.3853 -85.7283 173° South 430 495 32,500 768 Climbing Indianapolis Center
Sun 06:48:28 PM 39.2714 -85.7078 172° South 418 481 33,000 240 Climbing Indianapolis Center
Sun 06:49:30 PM 39.1547 -85.6878 172° South 418 481 33,000  Level Indianapolis Center
Sun 06:50:32 PM 39.0392 -85.6694 173° South 418 481 33,000  Level Indianapolis Center
Sun 06:51:34 PM 38.9228 -85.6492 172° South 418 481 33,000  Level Indianapolis Center
Sun 06:52:37 PM 38.7844 -85.6247 172° South 419 482 33,000  Level Indianapolis Center
Sun 06:53:39 PM 38.6686 -85.6053 173° South 419 482 33,000  Level Indianapolis Center
Sun 06:54:41 PM 38.5531 -85.5850 172° South 419 482 33,000  Level Indianapolis Center
Sun 06:55:43 PM 38.4364 -85.5658 173° South 419 482 33,000  Level Indianapolis Center
Sun 06:56:45 PM 38.3214 -85.5472 173° South 418 481 33,000  Level Indianapolis Center
Sun 06:57:47 PM 38.2056 -85.5278 172° South 417 480 33,000  Level Indianapolis Center
Sun 06:58:49 PM 38.0903 -85.5078 172° South 417 480 33,000  Level Indianapolis Center
Sun 06:59:51 PM 37.9503 -85.4831 172° South 417 480 33,000  Level Indianapolis Center
Sun 07:00:53 PM 37.8347 -85.4656 173° South 417 480 33,000  Level Indianapolis Center
Sun 07:01:55 PM 37.7253 -85.4483 173° South 411 473 33,000  Level Indianapolis Center
Sun 07:02:58 PM 37.6119 -85.4294 172° South 411 473 33,000  Level Indianapolis Center
Sun 07:04:00 PM 37.5000 -85.4097 172° South 408 470 33,000  Level Indianapolis Center
Sun 07:05:02 PM 37.3742 -85.3883 172° South 394 453 33,000  Level Indianapolis Center
Sun 07:06:04 PM 37.2678 -85.3728 173° South 389 448 33,000  Level Indianapolis Center
Sun 07:07:06 PM 37.1625 -85.3578 174° South 384 442 33,000  Level Indianapolis Center
Sun 07:08:08 PM 37.0558 -85.3394 172° South 385 443 33,000  Level Indianapolis Center
Sun 07:09:10 PM 36.9350 -85.3189 172° South 384 442 33,000  Level Indianapolis Center
Sun 07:10:12 PM 36.8292 -85.3011 172° South 384 442 33,000  Level Indianapolis Center
Sun 07:11:14 PM 36.7247 -85.2856 173° South 382 440 33,000  Level Indianapolis Center
Sun 07:12:16 PM 36.6183 -85.2683 173° South 381 438 33,000  Level Indianapolis Center
Sun 07:13:18 PM 36.5122 -85.2531 173° South 382 440 33,000  Level Indianapolis Center
Sun 07:14:20 PM 36.4064 -85.2358 173° South 383 441 33,000  Level Indianapolis Center
Sun 07:15:22 PM 36.2800 -85.2161 173° South 383 441 33,000  Level Indianapolis Center
Sun 07:16:24 PM 36.1761 -85.1989 172° South 382 440 33,000  Level Indianapolis Center
Sun 07:17:26 PM 36.0725 -85.1833 173° South 381 438 33,000  Level Indianapolis Center
Sun 07:18:28 PM 35.9700 -85.1675 173° South 378 435 33,000  Level Indianapolis Center
Sun 07:19:30 PM 35.8675 -85.1522 173° South 378 435 33,000  Level Indianapolis Center
Sun 07:20:32 PM 35.7508 -85.1342 173° South 377 434 33,000  Level Indianapolis Center
Sun 07:21:46 PM 35.6217 -85.1144 173° South 381 438 33,000  Level Atlanta Center
Sun 07:22:46 PM 35.5217 -85.0978 172° South 369 425 33,000  Level Atlanta Center
Sun 07:23:46 PM 35.4239 -85.0836 173° South 369 425 33,000  Level Atlanta Center
Sun 07:24:46 PM 35.3197 -85.0672 173° South 369 425 33,000  Level Atlanta Center
Sun 07:25:46 PM 35.2239 -85.0531 173° South 369 425 33,000  Level Atlanta Center
Sun 07:26:46 PM 35.1281 -85.0367 172° South 364 419 33,000  Level Atlanta Center
Sun 07:27:46 PM 35.0258 -85.0228 174° South 364 419 33,000  Level Atlanta Center
Sun 07:28:46 PM 34.9278 -85.0092 174° South 364 419 33,000  Level Atlanta Center
Sun 07:29:46 PM 34.8278 -84.9953 173° South 369 425 33,000  Level Atlanta Center
Sun 07:30:46 PM 34.7256 -84.9789 172° South 369 425 33,000  Level Atlanta Center
Sun 07:31:46 PM 34.6278 -84.9628 172° South 369 425 33,000  Level Atlanta Center
Sun 07:32:46 PM 34.5236 -84.9464 173° South 374 430 33,000  Level Atlanta Center
Sun 07:33:46 PM 34.4256 -84.9303 172° South 374 430 33,000  Level Atlanta Center
Sun 07:34:46 PM 34.3214 -84.9167 174° South 369 425 33,000  Level Atlanta Center
Sun 07:35:46 PM 34.2169 -84.9006 173° South 369 425 33,000  Level Atlanta Center
Sun 07:36:46 PM 34.1128 -84.8869 174° South 369 425 33,000  Level Atlanta Center
Sun 07:37:46 PM 34.0106 -84.8733 174° South 369 425 33,000  Level Atlanta Center
Sun 07:38:46 PM 33.9064 -84.8597 174° South 369 425 33,000  Level Atlanta Center
Sun 07:39:46 PM 33.8125 -84.8439 172° South 369 425 33,000  Level Atlanta Center
Sun 07:40:46 PM 33.7000 -84.8253 172° South 369 425 33,000  Level Atlanta Center
Sun 07:41:46 PM 33.5978 -84.8094 173° South 369 425 33,000  Level Atlanta Center
Sun 07:42:46 PM 33.4933 -84.7986 175° South 374 430 33,000  Level Atlanta Center
Sun 07:43:46 PM 33.4017 -84.7853 173° South 374 430 33,000  Level Atlanta Center
Sun 07:44:46 PM 33.2975 -84.7694 173° South 374 430 33,000  Level Atlanta Center
Sun 07:45:46 PM 33.1953 -84.7536 173° South 369 425 33,000  Level Atlanta Center
Sun 07:46:46 PM 33.0908 -84.7381 173° South 369 425 33,000  Level Atlanta Center
Sun 07:47:46 PM 32.9867 -84.7222 173° South 369 425 33,000  Level Atlanta Center
Sun 07:48:46 PM 32.8803 -84.7092 174° South 374 430 33,000  Level Atlanta Center
Sun 07:49:46 PM 32.7761 -84.6886 171° South 384 442 33,000  Level Atlanta Center
Sun 07:50:46 PM 32.6656 -84.6731 173° South 394 453 33,000  Level Atlanta Center
Sun 07:51:46 PM 32.5569 -84.6575 173° South 394 453 33,000  Level Atlanta Center
Sun 07:54:06 PM 32.3008 -84.6206 173° South 405 466 33,000  Level Jacksonville Center
Sun 07:55:06 PM 32.1883 -84.6036 173° South 405 466 33,000  Level Jacksonville Center
Sun 07:56:06 PM 32.0758 -84.5867 173° South 410 472 33,000  Level Jacksonville Center
Sun 07:57:06 PM 31.9614 -84.5700 173° South 410 472 33,000  Level Jacksonville Center
Sun 07:58:06 PM 31.8486 -84.5556 174° South 410 472 33,000  Level Jacksonville Center
Sun 07:59:06 PM 31.7319 -84.5414 174° South 415 478 33,000  Level Jacksonville Center
Sun 08:00:06 PM 31.6153 -84.5247 173° South 420 483 33,000  Level Jacksonville Center
Sun 08:01:06 PM 31.5006 -84.5056 172° South 420 483 33,000  Level Jacksonville Center
Sun 08:02:06 PM 31.3839 -84.4889 173° South 426 490 33,000  Level Jacksonville Center
Sun 08:03:06 PM 31.2631 -84.4722 173° South 426 490 33,000  Level Jacksonville Center
Sun 08:04:06 PM 31.1442 -84.4558 173° South 431 496 33,000  Level Jacksonville Center
Sun 08:05:06 PM 31.0233 -84.4392 173° South 431 496 33,000  Level Jacksonville Center
Sun 08:06:06 PM 30.9025 -84.4250 174° South 436 502 33,000  Level Jacksonville Center
Sun 08:07:06 PM 30.7817 -84.4064 172° South 436 502 33,000  Level Jacksonville Center
Sun 08:08:06 PM 30.6586 -84.3897 173° South 442 509 33,000 -50 Level Jacksonville Center
Sun 08:09:06 PM 30.5317 -84.3564 167° South 442 509 32,900  Descending Jacksonville Center
Sun 08:10:06 PM 30.4156 -84.2825 151° Southeast 447 514 33,000  Climbing Jacksonville Center
Sun 08:11:06 PM 30.3350 -84.1994 138° Southeast 458 527 32,900 -100 Descending Jacksonville Center
Sun 08:12:06 PM 30.2317 -84.0850 136° Southeast 464 534 32,800 -500 Descending Jacksonville Center
Sun 08:13:06 PM 30.1367 -83.9758 135° Southeast 470 541 31,900 -950 Descending Jacksonville Center
Sun 08:14:06 PM 30.0394 -83.8714 137° Southeast 475 547 30,900 -500 Descending Jacksonville Center
Sun 08:15:06 PM 29.9294 -83.7867 146° Southeast 475 547 30,900 -200 Level Jacksonville Center
Sun 08:16:06 PM 29.7939 -83.7278 159° South 470 541 30,500 -700 Descending Jacksonville Center
Sun 08:17:06 PM 29.6689 -83.6908 166° South 470 541 29,500 -950 Descending Jacksonville Center
Sun 08:18:06 PM 29.5419 -83.6422 162° South 470 541 28,600 -950 Descending Jacksonville Center
Sun 08:19:06 PM 29.4192 -83.5911 160° South 470 541 27,600 -1,000 Descending Jacksonville Center
Sun 08:20:06 PM 29.3025 -83.5378 158° South 465 535 26,600 -1,000 Descending Jacksonville Center
Sun 08:21:06 PM 29.1900 -83.4872 159° South 453 521 25,600 -1,000 Descending Jacksonville Center
Sun 08:22:06 PM 29.0839 -83.4247 153° Southeast 436 502 24,600 -800 Descending Jacksonville Center
Sun 08:23:06 PM 28.9797 -83.3578 151° Southeast 430 495 24,000 -1,200 Descending Jacksonville Center
Sun 08:24:06 PM 28.8736 -83.2886 150° Southeast 430 495 22,200 -2,100 Descending Jacksonville Center
Sun 08:25:06 PM 28.7694 -83.2242 152° Southeast 430 495 19,800 -2,510 Descending Jacksonville Center
Sun 08:26:39 PM 28.6167 -83.1333 152° Southeast 398 458 15,800 -2,471 Descending Tampa TRACON
Sun 08:27:39 PM 28.5167 -83.0667 150° Southeast 386 444 13,500 -1,850 Descending Tampa TRACON
Sun 08:28:39 PM 28.4333 -83.0167 152° Southeast 362 417 12,100 -1,500 Descending Tampa TRACON
Sun 08:29:39 PM 28.3500 -82.9500 145° Southeast 325 374 10,500 -1,500 Descending Tampa TRACON
Sun 08:30:39 PM 28.3000 -82.9000 139° Southeast 286 329 9,100 -1,900 Descending Tampa TRACON
Sun 08:31:39 PM 28.2333 -82.8333 139° Southeast 272 313 6,700 -2,300 Descending Tampa TRACON
Sun 08:32:39 PM 28.1833 -82.7833 139° Southeast 250 288 4,500 -2,000 Descending Tampa TRACON
Sun 08:33:39 PM 28.1333 -82.7333 139° Southeast 229 264 2,700 -950 Descending Tampa TRACON
Sun 08:34:39 PM 28.0833 -82.7167 164° South 152 175 2,600 -200 Descending Tampa TRACON
Sun 08:35:39 PM 28.0500 -82.7167 180° South 152 175 2,300 -500 Descending Tampa TRACON
Sun 08:36:39 PM 28.0167 -82.7000 156° South 106 122 1,600 -650 Descending Tampa TRACON
Sun 08:37:39 PM 27.9833 -82.7000 180° South 114 131 1,000 -600 Descending Tampa TRACON
Sun 08:38:39 PM 27.9500 -82.7000 180° South 121 139 400 -600 Descending Tampa TRACON

Login

Don't have an account? Register now (free) for customized features, flight alerts, and more!